createdAt,value
2023-03-16T00:00:15.489Z,13.85
2023-03-16T00:02:45.014Z,10.50
2023-03-16T00:05:15.614Z,18.85
2023-03-16T00:07:46.090Z,19.10
2023-03-16T00:10:15.051Z,12.85
2023-03-16T00:12:45.380Z,19.95
2023-03-16T00:15:15.284Z,16.33
2023-03-16T00:17:49.041Z,22.27
2023-03-16T00:20:19.126Z,23.02
2023-03-16T00:25:18.545Z,16.98
2023-03-16T00:27:48.332Z,19.70
2023-03-16T00:30:17.140Z,20.15
2023-03-16T00:32:45.993Z,19.70
2023-03-16T00:35:14.609Z,20.75
2023-03-16T00:37:44.789Z,21.83
2023-03-16T00:40:15.326Z,17.33
2023-03-16T00:42:44.693Z,16.38
2023-03-16T00:45:13.343Z,12.40
2023-03-16T00:47:42.346Z,22.73
2023-03-16T00:50:12.077Z,15.70
2023-03-16T00:52:40.641Z,12.70
2023-03-16T00:55:10.259Z,16.35
2023-03-16T00:57:40.502Z,24.23
2023-03-16T01:00:13.157Z,9.13
2023-03-16T01:02:42.240Z,16.20
2023-03-16T01:05:16.748Z,8.82
2023-03-16T01:07:46.597Z,13.98
2023-03-16T01:10:16.093Z,23.05
2023-03-16T01:12:46.488Z,20.92
2023-03-16T01:15:16.229Z,12.73
2023-03-16T01:17:44.846Z,17.67
2023-03-16T01:20:19.514Z,16.23
2023-03-16T01:22:48.253Z,15.18
2023-03-16T01:25:18.522Z,18.65
2023-03-16T01:27:48.754Z,24.50
2023-03-16T01:30:17.513Z,13.70
2023-03-16T01:32:46.607Z,15.65
2023-03-16T01:35:16.405Z,17.15
2023-03-16T01:37:46.352Z,18.02
2023-03-16T01:40:22.667Z,27.60
2023-03-16T01:43:02.513Z,24.70
2023-03-16T01:46:18.386Z,18.65
2023-03-16T01:48:58.009Z,18.35
2023-03-16T01:51:34.367Z,16.75
2023-03-16T01:54:09.306Z,20.25
2023-03-16T01:56:41.846Z,22.55
2023-03-16T01:59:16.848Z,15.20
2023-03-16T02:01:48.825Z,13.88
2023-03-16T02:04:37.705Z,16.92
2023-03-16T02:07:10.371Z,26.75
2023-03-16T02:09:44.358Z,16.15
2023-03-16T02:12:18.124Z,16.90
2023-03-16T02:14:53.021Z,19.85
2023-03-16T02:17:24.832Z,15.48
2023-03-16T02:20:11.262Z,16.50
2023-03-16T02:22:44.569Z,12.02
2023-03-16T02:25:15.609Z,15.32
2023-03-16T02:27:54.533Z,16.35
2023-03-16T02:30:24.740Z,15.70
2023-03-16T02:33:05.377Z,21.00
2023-03-16T02:40:46.342Z,16.67
2023-03-16T02:43:20.074Z,14.00
2023-03-16T02:46:05.490Z,17.58
2023-03-16T02:48:39.519Z,19.40
2023-03-16T02:51:08.478Z,10.48
2023-03-16T02:53:37.047Z,16.67
2023-03-16T02:56:06.616Z,17.33
2023-03-16T02:58:37.552Z,14.70
2023-03-16T03:01:15.222Z,17.40
2023-03-16T03:03:43.927Z,17.88
2023-03-16T03:06:12.508Z,17.83
2023-03-16T03:08:42.773Z,16.88
2023-03-16T03:11:12.026Z,19.05
2023-03-16T03:13:43.854Z,22.63
2023-03-16T03:16:18.549Z,15.57
2023-03-16T03:18:47.293Z,14.38
2023-03-16T03:21:16.786Z,25.05
2023-03-16T03:23:46.772Z,20.65
2023-03-16T03:26:16.059Z,20.38
2023-03-16T03:28:46.672Z,14.55
2023-03-16T03:33:46.972Z,17.17
2023-03-16T03:36:15.997Z,12.30
2023-03-16T03:38:46.554Z,16.52
2023-03-16T03:41:15.211Z,20.20
2023-03-16T03:43:45.960Z,20.33
2023-03-16T03:46:18.192Z,21.38
2023-03-16T03:48:48.258Z,22.35
2023-03-16T03:51:17.157Z,24.02
2023-03-16T03:54:00.202Z,20.42
2023-03-16T03:56:42.755Z,27.52
2023-03-16T03:59:15.717Z,19.50
2023-03-16T04:02:04.842Z,19.90
2023-03-16T04:04:44.163Z,20.33
2023-03-16T04:07:15.638Z,21.52
2023-03-16T04:09:46.055Z,22.17
2023-03-16T04:12:37.273Z,26.33
2023-03-16T04:15:08.019Z,21.13
2023-03-16T04:17:46.746Z,16.33
2023-03-16T04:22:49.408Z,21.77
2023-03-16T04:25:19.481Z,22.43
2023-03-16T04:27:50.094Z,25.42
2023-03-16T04:32:53.517Z,19.02
2023-03-16T04:35:25.290Z,19.90
2023-03-16T04:37:56.811Z,22.17
2023-03-16T04:40:32.817Z,21.40
2023-03-16T04:43:11.293Z,19.90
2023-03-16T04:45:39.897Z,35.75
2023-03-16T04:48:09.549Z,22.23
2023-03-16T04:50:41.062Z,22.70
2023-03-16T04:53:12.219Z,32.17
2023-03-16T04:55:41.977Z,19.17
2023-03-16T04:58:10.730Z,24.90
2023-03-16T05:00:41.679Z,20.65
2023-03-16T05:03:19.370Z,25.80
2023-03-16T05:05:49.945Z,16.75
2023-03-16T05:08:19.428Z,21.55
2023-03-16T05:10:51.172Z,24.52
2023-03-16T05:13:23.138Z,22.27
2023-03-16T05:15:54.108Z,19.92
2023-03-16T05:18:33.300Z,20.75
2023-03-16T05:21:03.732Z,25.10
2023-03-16T05:23:43.978Z,28.95
2023-03-16T05:26:13.380Z,21.00
2023-03-16T05:28:42.687Z,20.27
2023-03-16T05:31:14.644Z,25.45
2023-03-16T05:33:49.554Z,26.63
2023-03-16T05:36:22.877Z,20.80
2023-03-16T05:38:54.965Z,24.45
2023-03-16T05:41:44.263Z,23.25
2023-03-16T05:44:33.652Z,21.13
2023-03-16T05:47:36.752Z,19.17
2023-03-16T05:50:11.520Z,17.88
2023-03-16T05:52:45.819Z,22.58
2023-03-16T05:55:21.213Z,19.60
2023-03-16T05:57:56.430Z,21.80
2023-03-16T06:00:28.007Z,21.80
2023-03-16T06:03:08.202Z,26.60
2023-03-16T06:05:40.008Z,18.30
2023-03-16T06:08:10.704Z,20.15
2023-03-16T06:10:43.526Z,19.10
2023-03-16T06:13:12.219Z,18.95
2023-03-16T06:15:41.450Z,20.93
2023-03-16T06:18:10.191Z,15.95
2023-03-16T06:20:39.190Z,23.90
2023-03-16T06:25:40.799Z,18.73
2023-03-16T06:28:11.252Z,14.85
2023-03-16T06:30:40.594Z,20.90
2023-03-16T06:33:10.496Z,20.63
2023-03-16T06:35:39.356Z,23.70
2023-03-16T06:38:25.162Z,16.98
2023-03-16T06:41:01.789Z,17.95
2023-03-16T06:43:31.176Z,14.45
2023-03-16T06:46:01.777Z,19.42
2023-03-16T06:48:31.424Z,19.90
2023-03-16T06:51:00.563Z,17.88
2023-03-16T06:53:32.825Z,13.50
2023-03-16T06:56:01.494Z,18.85
2023-03-16T06:58:33.183Z,17.13
2023-03-16T07:01:03.930Z,17.00
2023-03-16T07:03:33.141Z,12.90
2023-03-16T07:06:08.958Z,16.15
2023-03-16T07:08:39.017Z,12.20
2023-03-16T07:11:07.822Z,13.55
2023-03-16T07:13:37.985Z,13.38
2023-03-16T07:18:38.114Z,18.90
2023-03-16T07:21:09.088Z,16.85
2023-03-16T07:23:40.699Z,32.65
2023-03-16T07:26:12.159Z,16.00
2023-03-16T07:28:50.347Z,26.65
2023-03-16T07:31:19.393Z,19.13
2023-03-16T07:33:48.904Z,12.10
2023-03-16T07:36:26.841Z,20.63
2023-03-16T07:39:01.503Z,17.70
2023-03-16T07:41:32.557Z,13.65
2023-03-16T07:44:15.577Z,22.38
2023-03-16T07:46:48.496Z,18.13
2023-03-16T07:49:17.996Z,18.13
2023-03-16T07:51:49.948Z,13.43
2023-03-16T07:54:24.396Z,15.95
2023-03-16T07:56:53.369Z,23.27
2023-03-16T07:59:37.249Z,17.70
2023-03-16T08:02:06.425Z,18.98
2023-03-16T08:04:35.188Z,12.90
2023-03-16T08:07:04.931Z,10.90
2023-03-16T08:09:49.367Z,11.00
2023-03-16T08:12:24.198Z,18.90
2023-03-16T08:14:55.877Z,11.87
2023-03-16T08:17:31.726Z,12.50
2023-03-16T08:20:02.492Z,13.93
2023-03-16T08:22:31.139Z,9.25
2023-03-16T08:25:03.110Z,17.10
2023-03-16T08:27:31.909Z,12.98
2023-03-16T08:30:06.275Z,18.33
2023-03-16T08:32:37.543Z,9.48
2023-03-16T08:35:06.991Z,19.77
2023-03-16T08:37:35.740Z,19.00
2023-03-16T08:40:10.847Z,13.40
2023-03-16T08:42:41.770Z,18.05
2023-03-16T08:45:14.442Z,16.55
2023-03-16T08:47:45.338Z,17.98
2023-03-16T08:50:15.846Z,15.68
2023-03-16T08:52:44.742Z,10.95
2023-03-16T08:55:16.967Z,13.23
2023-03-16T08:57:46.605Z,17.55
2023-03-16T09:00:16.217Z,11.68
2023-03-16T09:02:45.762Z,14.80
2023-03-16T09:05:16.214Z,19.05
2023-03-16T09:07:47.125Z,16.92
2023-03-16T09:10:19.086Z,15.73
2023-03-16T09:12:48.853Z,13.18
2023-03-16T09:17:46.696Z,12.95
2023-03-16T09:20:22.723Z,20.50
2023-03-16T09:22:55.893Z,15.50
2023-03-16T09:27:55.894Z,14.23
2023-03-16T09:30:24.777Z,12.25
2023-03-16T09:32:53.790Z,11.20
2023-03-16T09:35:22.576Z,13.32
2023-03-16T09:38:05.624Z,14.27
2023-03-16T09:40:38.618Z,13.50
2023-03-16T09:43:26.281Z,20.15
2023-03-16T09:46:05.690Z,16.73
2023-03-16T09:48:36.977Z,35.88
2023-03-16T09:51:08.473Z,13.27
2023-03-16T09:53:42.091Z,12.25
2023-03-16T09:56:18.435Z,15.77
2023-03-16T09:58:47.345Z,11.52
2023-03-16T10:01:24.633Z,18.38
2023-03-16T10:04:03.637Z,15.38
2023-03-16T10:06:33.300Z,17.45
2023-03-16T10:09:13.166Z,10.32
2023-03-16T10:11:47.187Z,14.18
2023-03-16T10:14:23.964Z,10.15
2023-03-16T10:16:58.095Z,12.88
2023-03-16T10:19:35.732Z,14.48
2023-03-16T10:22:15.684Z,13.88
2023-03-16T10:24:53.678Z,17.10
2023-03-16T10:27:31.156Z,12.75
2023-03-16T10:30:01.339Z,13.05
2023-03-16T10:32:34.767Z,10.07
2023-03-16T10:35:08.419Z,10.85
2023-03-16T10:37:38.882Z,16.05
2023-03-16T10:40:13.095Z,9.80
2023-03-16T10:42:44.015Z,24.38
2023-03-16T10:45:27.749Z,13.93
2023-03-16T10:48:07.970Z,12.02
2023-03-16T10:50:37.197Z,12.10
2023-03-16T11:08:34.198Z,7.32
2023-03-16T11:11:12.041Z,13.73
2023-03-16T11:13:46.272Z,14.00
2023-03-16T11:16:30.740Z,9.57
2023-03-16T11:19:04.822Z,21.25
2023-03-16T11:21:42.429Z,13.32
2023-03-16T11:24:23.118Z,13.90
2023-03-16T11:26:57.236Z,9.07
2023-03-16T11:29:33.932Z,11.32
2023-03-16T11:32:06.710Z,7.07
2023-03-16T11:34:36.579Z,10.32
2023-03-16T11:37:15.647Z,9.02
2023-03-16T11:39:56.555Z,7.93
2023-03-16T11:42:35.647Z,10.95
2023-03-16T11:45:26.081Z,9.55
2023-03-16T11:48:18.262Z,10.32
2023-03-16T11:51:05.534Z,14.02
2023-03-16T11:53:47.060Z,9.40
2023-03-16T11:56:27.467Z,9.88
2023-03-16T11:59:19.519Z,7.95
2023-03-16T12:02:03.122Z,12.82
2023-03-16T12:04:52.077Z,8.82
2023-03-16T12:07:35.798Z,24.05
2023-03-16T12:10:31.309Z,16.38
2023-03-16T12:13:16.646Z,11.15
2023-03-16T12:15:48.743Z,12.70
2023-03-16T12:18:21.457Z,15.02
2023-03-16T12:20:55.503Z,8.00
2023-03-16T12:23:30.589Z,12.75
2023-03-16T12:26:01.230Z,9.40
2023-03-16T12:28:33.611Z,8.88
2023-03-16T12:31:13.394Z,10.75
2023-03-16T12:33:54.203Z,8.63
2023-03-16T12:36:47.732Z,8.70
2023-03-16T12:39:25.833Z,15.10
2023-03-16T12:42:07.391Z,8.07
2023-03-16T12:44:46.143Z,9.82
2023-03-16T12:47:24.104Z,6.15
2023-03-16T12:49:53.426Z,8.95
2023-03-16T12:52:22.658Z,7.75
2023-03-16T12:54:53.263Z,9.88
2023-03-16T12:57:32.010Z,8.98
2023-03-16T13:00:11.708Z,9.70
2023-03-16T13:02:53.700Z,12.68
2023-03-16T13:05:37.193Z,8.85
2023-03-16T13:08:10.363Z,7.35
2023-03-16T13:10:40.012Z,10.60
2023-03-16T13:15:42.197Z,9.25
2023-03-16T13:18:25.098Z,7.93
2023-03-16T13:20:59.244Z,9.63
2023-03-16T13:23:30.254Z,8.93
2023-03-16T13:26:06.940Z,10.85
2023-03-16T13:28:38.931Z,8.90
2023-03-16T13:31:22.892Z,8.98
2023-03-16T13:33:55.193Z,10.20
2023-03-16T13:36:24.620Z,12.45
2023-03-16T13:39:05.686Z,15.10
2023-03-16T13:41:34.644Z,11.25
2023-03-16T13:44:05.351Z,9.13
2023-03-16T13:46:36.117Z,13.15
2023-03-16T13:49:05.820Z,10.32
2023-03-16T13:54:09.158Z,18.60
2023-03-16T13:56:40.277Z,12.80
2023-03-16T13:59:10.743Z,11.68
2023-03-16T14:01:45.184Z,12.07
2023-03-16T14:04:18.908Z,17.05
2023-03-16T14:06:56.286Z,29.90
2023-03-16T14:09:29.356Z,20.15
2023-03-16T14:11:58.978Z,15.10
2023-03-16T14:14:30.566Z,12.35
2023-03-16T14:17:05.680Z,12.43
2023-03-16T14:19:42.581Z,11.40
2023-03-16T14:22:16.878Z,13.73
2023-03-16T14:24:48.046Z,9.90
2023-03-16T14:27:20.734Z,11.45
2023-03-16T14:30:02.041Z,11.15
2023-03-16T14:32:33.783Z,10.98
2023-03-16T14:35:13.043Z,14.43
2023-03-16T14:37:42.584Z,9.32
2023-03-16T14:40:25.466Z,13.25
2023-03-16T14:42:56.270Z,12.25
2023-03-16T14:45:29.597Z,12.30
2023-03-16T14:48:05.440Z,17.77
2023-03-16T14:50:34.965Z,12.90
2023-03-16T14:53:05.322Z,13.68
2023-03-16T14:55:33.968Z,12.88
2023-03-16T14:58:02.561Z,11.25
2023-03-16T15:00:37.116Z,9.95
2023-03-16T15:03:14.054Z,15.05
2023-03-16T15:05:44.862Z,18.42
2023-03-16T15:08:19.167Z,16.38
2023-03-16T15:10:48.127Z,11.90
2023-03-16T15:13:34.916Z,11.75
2023-03-16T15:16:04.575Z,9.00
2023-03-16T15:21:03.728Z,6.57
2023-03-16T15:23:32.592Z,5.07
2023-03-16T15:26:03.037Z,3.53
2023-03-16T15:28:31.659Z,7.05
2023-03-16T15:31:03.334Z,5.70
2023-03-16T15:33:32.643Z,3.60
2023-03-16T15:36:08.089Z,5.43
2023-03-16T15:38:40.491Z,7.95
2023-03-16T15:41:11.419Z,8.93
2023-03-16T15:43:40.854Z,6.07
2023-03-16T15:46:11.249Z,9.00
2023-03-16T15:48:40.427Z,7.10
2023-03-16T15:51:17.993Z,4.78
2023-03-16T15:53:51.220Z,4.22
2023-03-16T15:56:26.728Z,3.78
2023-03-16T15:58:55.341Z,3.58
2023-03-16T16:01:25.523Z,5.55
2023-03-16T16:03:55.614Z,3.15
2023-03-16T16:06:27.606Z,2.63
2023-03-16T16:08:56.753Z,3.63
2023-03-16T16:11:26.622Z,1.65
2023-03-16T16:13:56.496Z,0.95
2023-03-16T16:16:27.409Z,1.52
2023-03-16T16:18:56.927Z,3.65
2023-03-16T16:21:31.094Z,2.33
2023-03-16T16:24:01.455Z,2.78
2023-03-16T16:26:53.276Z,4.28
2023-03-16T16:29:24.209Z,6.57
2023-03-16T16:31:53.385Z,6.38
2023-03-16T16:34:24.884Z,5.47
2023-03-16T16:36:56.136Z,6.93
2023-03-16T16:39:25.536Z,19.10
2023-03-16T16:41:56.591Z,65.90
2023-03-16T16:44:28.918Z,48.78
2023-03-16T16:46:59.889Z,33.38
2023-03-16T16:49:30.765Z,24.98
2023-03-16T16:52:01.231Z,16.08
2023-03-16T16:54:31.860Z,12.80
2023-03-16T16:57:03.184Z,10.85
2023-03-16T16:59:34.191Z,11.20
2023-03-16T17:02:03.860Z,10.52
2023-03-16T17:04:32.388Z,9.35
2023-03-16T17:07:03.645Z,8.98
2023-03-16T17:09:32.261Z,8.18
2023-03-16T17:12:02.194Z,11.30
2023-03-16T17:14:31.587Z,10.60
2023-03-16T17:17:05.325Z,7.60
2023-03-16T17:19:34.009Z,6.85
2023-03-16T17:22:03.985Z,8.05
2023-03-16T17:24:32.566Z,7.00
2023-03-16T17:27:04.669Z,5.72
2023-03-16T17:29:36.739Z,5.00
2023-03-16T17:32:17.204Z,5.00
2023-03-16T17:34:46.017Z,5.43
2023-03-16T17:37:19.169Z,6.18
2023-03-16T17:39:47.960Z,4.13
2023-03-16T17:42:18.877Z,4.40
2023-03-16T17:44:49.696Z,4.57
2023-03-16T17:47:21.555Z,5.47
2023-03-16T17:49:50.993Z,5.22
2023-03-16T17:52:23.482Z,5.35
2023-03-16T17:54:53.876Z,4.97
2023-03-16T17:57:27.478Z,6.07
2023-03-16T17:59:56.573Z,6.10
2023-03-16T18:02:49.876Z,5.10
2023-03-16T18:05:19.797Z,5.65
2023-03-16T18:07:49.894Z,7.30
2023-03-16T18:10:20.149Z,7.07
2023-03-16T18:12:54.699Z,6.65
2023-03-16T18:15:25.714Z,6.63
2023-03-16T18:17:54.838Z,8.27
2023-03-16T18:20:27.988Z,8.57
2023-03-16T18:22:58.916Z,10.27
2023-03-16T18:25:33.991Z,11.57
2023-03-16T18:28:02.943Z,16.77
2023-03-16T18:30:32.996Z,11.50
2023-03-16T18:33:03.044Z,6.75
2023-03-16T18:35:32.345Z,24.88
2023-03-16T18:38:02.528Z,17.80
2023-03-16T18:40:31.745Z,5.53
2023-03-16T18:43:00.601Z,6.13
2023-03-16T18:45:31.109Z,5.83
2023-03-16T18:47:59.876Z,5.78
2023-03-16T18:50:30.365Z,6.22
2023-03-16T18:52:59.431Z,8.98
2023-03-16T18:55:30.768Z,25.38
2023-03-16T18:58:00.558Z,19.80
2023-03-16T19:00:29.923Z,10.98
2023-03-16T19:03:03.353Z,12.80
2023-03-16T19:05:36.033Z,9.45
2023-03-16T19:08:06.479Z,12.70
2023-03-16T19:10:47.357Z,13.35
2023-03-16T19:13:19.365Z,11.40
2023-03-16T19:15:48.886Z,11.40
2023-03-16T19:18:17.527Z,13.50
2023-03-16T19:20:50.236Z,12.23
2023-03-16T19:23:23.669Z,12.13
2023-03-16T19:25:54.614Z,18.33
2023-03-16T19:28:28.304Z,17.67
2023-03-16T19:30:57.389Z,15.82
2023-03-16T19:33:27.322Z,15.15
2023-03-16T19:35:56.850Z,23.13
2023-03-16T19:40:59.420Z,13.45
2023-03-16T19:43:29.373Z,13.63
2023-03-16T19:45:58.034Z,15.18
2023-03-16T19:48:33.024Z,19.02
2023-03-16T19:51:02.004Z,13.93
2023-03-16T19:53:30.574Z,13.70
2023-03-16T19:56:01.204Z,16.02
2023-03-16T19:58:33.488Z,29.65
2023-03-16T20:01:02.601Z,18.33
2023-03-16T20:03:36.680Z,17.50
2023-03-16T20:06:05.713Z,13.75
2023-03-16T20:08:34.279Z,15.67
2023-03-16T20:11:07.466Z,15.05
2023-03-16T20:13:36.777Z,16.85
2023-03-16T20:16:05.679Z,17.88
2023-03-16T20:18:34.349Z,26.05
2023-03-16T20:21:02.826Z,15.20
2023-03-16T20:23:31.419Z,16.15
2023-03-16T20:26:02.935Z,23.00
2023-03-16T20:28:36.971Z,24.67
2023-03-16T20:31:08.721Z,37.75
2023-03-16T20:33:37.475Z,26.30
2023-03-16T20:36:07.284Z,14.35
2023-03-16T20:41:04.414Z,7.95
2023-03-16T20:43:34.460Z,12.52
2023-03-16T20:46:04.890Z,13.13
2023-03-16T20:48:34.243Z,12.32
2023-03-16T20:51:02.870Z,12.00
2023-03-16T20:53:31.401Z,11.07
2023-03-16T20:56:00.013Z,9.48
2023-03-16T20:58:29.552Z,14.80
2023-03-16T21:01:01.212Z,30.95
2023-03-16T21:03:33.458Z,21.17
2023-03-16T21:06:02.037Z,13.93
2023-03-16T21:08:30.547Z,11.60
2023-03-16T21:11:00.443Z,13.05
2023-03-16T21:13:32.414Z,11.13
2023-03-16T21:16:04.554Z,14.18
2023-03-16T21:18:33.199Z,9.55
2023-03-16T21:21:03.118Z,8.75
2023-03-16T21:23:32.474Z,9.45
2023-03-16T21:26:03.882Z,9.05
2023-03-16T21:28:35.110Z,9.68
2023-03-16T21:31:07.588Z,7.22
2023-03-16T21:33:38.161Z,7.75
2023-03-16T21:36:09.504Z,6.45
2023-03-16T21:38:40.240Z,6.47
2023-03-16T21:41:08.895Z,6.50
2023-03-16T21:43:37.930Z,6.43
2023-03-16T21:46:15.138Z,8.20
2023-03-16T21:48:44.747Z,7.25
2023-03-16T21:51:18.306Z,7.88
2023-03-16T21:53:48.052Z,10.70
2023-03-16T21:58:46.514Z,10.77
2023-03-16T22:01:25.004Z,6.93
2023-03-16T22:03:57.514Z,6.00
2023-03-16T22:06:28.027Z,5.72
2023-03-16T22:08:57.608Z,9.15
2023-03-16T22:11:28.548Z,10.48
2023-03-16T22:13:58.406Z,9.40
2023-03-16T22:16:31.080Z,8.43
2023-03-16T22:19:00.512Z,13.70
2023-03-16T22:21:33.994Z,13.80
2023-03-16T22:24:05.502Z,15.18
2023-03-16T22:26:34.477Z,15.25
2023-03-16T22:29:04.421Z,16.53
2023-03-16T22:31:37.092Z,12.13
2023-03-16T22:34:06.795Z,13.35
2023-03-16T22:39:12.352Z,15.63
2023-03-16T22:41:41.144Z,18.10
2023-03-16T22:44:20.153Z,23.52
2023-03-16T22:46:51.689Z,19.20
2023-03-16T22:49:23.431Z,15.52
2023-03-16T22:51:53.898Z,17.05
2023-03-16T22:54:28.099Z,20.75
2023-03-16T22:56:57.018Z,26.85
2023-03-16T22:59:27.756Z,44.67
2023-03-16T23:01:58.374Z,42.25
2023-03-16T23:04:30.523Z,21.45
2023-03-16T23:07:00.160Z,24.35
2023-03-16T23:09:29.057Z,27.58
2023-03-16T23:11:59.602Z,28.17
2023-03-16T23:14:32.245Z,26.10
2023-03-16T23:17:02.879Z,22.48
2023-03-16T23:19:34.170Z,19.00
2023-03-16T23:22:05.092Z,18.38
2023-03-16T23:24:34.643Z,16.70
2023-03-16T23:27:03.877Z,15.57
2023-03-16T23:29:32.900Z,15.50
2023-03-16T23:32:04.704Z,16.58
2023-03-16T23:34:33.977Z,15.80
2023-03-16T23:37:02.528Z,20.47
2023-03-16T23:39:32.655Z,18.20
2023-03-16T23:42:01.371Z,16.52
2023-03-16T23:44:31.481Z,18.60
2023-03-16T23:47:02.410Z,15.30
2023-03-16T23:49:33.993Z,17.70
2023-03-16T23:52:02.888Z,17.42
2023-03-16T23:54:33.445Z,16.83
2023-03-16T23:57:02.200Z,17.90
2023-03-16T23:59:30.642Z,17.83
